Lyndhurst, NJ (07071)

1:26 PM EDT on September 02, 2014 (GMT -0400)
North Arlington EMS | Change Station
CLOSE
Current Station
Personal Weather Station
Location: North Arlington, NJ
Elevation: 27 ft
Nearby Weather Stations
Active Advisory: Air Quality Alert

Elev 27 ft 40.79 °N, 74.12 °W | Updated 7 seconds ago

Clear
Clear
93.8 °F
Feels Like 108 °F
N
0.0
Wind Variable Wind from WNW
Gusts 0.0 mph

Today
High -- | Low -- °F
--% Chance of Precip.
Yesterday
High -- | Low -- °F
Precip. -- in
6:24 AM 7:27 PM
First Quarter, 53% visible
Pressure 29.86 in
Visibility 10.0 miles
Clouds Clear
Heat Index 108 °F
Dew Point 77 °F
Humidity 58%
Rainfall 0.00 in
Snow Depth Not available.
UV 9 out of 12
Pollen 8.40 out of 12
Air Quality Not available.
Flu Activity Not available.
METAR KTEB 021651Z 26005G14KT 10SM CLR 33/20 A2986 RMK AO2 SLP112 T03280200

More Conditions Fewer Conditions

Pressure 29.86 in
Visibility 10.0 miles
Clouds Clear
Heat Index 108 °F
Dew Point 77 °F
Humidity 58%
Rainfall 0.00 in
Snow Depth Not available.
UV 9 out of 12
Pollen 8.40 out of 12
Air Quality Not available.
Flu Activity Not available.
METAR KTEB 021651Z 26005G14KT 10SM CLR 33/20 A2986 RMK AO2 SLP112 T03280200

More Conditions Fewer Conditions

10-Day Weather Forecast

Almanac

Astronomy

Sep. 02, 2014 Rise Set
Actual Time 6:24 AM EDT 7:27 PM EDT
Civil Twilight 5:56 AM EDT 7:55 PM EDT
Nautical Twilight 5:22 AM EDT 8:28 PM EDT
Astronomical Twilight 4:47 AM EDT 9:03 PM EDT
Moon 2:08 PM EDT No Moon Set
Length of Visible Light 13h 58m
Length of Day
13h 02m
Tomorrow will be 2m 37s shorter.
First Quarter, 53% of the Moon is Illuminated
Today
First Quarter
Sep 8
Full
Sep 15
Last Quarter
Sep 24
New
Oct 1
First Quarter

Today's Extremes

State Highs State Lows

Community

WunderPhotos

Upload Photos

1,749,721 photos uploaded!

WunderBlogs® & News

By Dr. Jeff Masters
Director of Meteorology, Weather Underground
By Kari Strenfel
Meteorologist, Weather Underground
By Christopher C. Burt
Weather Historian, Weather Underground
September 2, 2014
September 2, 2014
September 2, 2014

Nearby

Snow Depth

Station Depth Elevation
No new snow has been reported.

Earthquake Activity

City Distance Mag. Time & Date
No recent earthquake activity has been reported nearby.
Minimum magnitude displayed is 2.5.

Coastal Water Temperatures

Place Temperature
Sandy Hook, NJ 78.1 °F
The Battery, NY 75.0 °F
Bergen Point West Reach, NJ 75.0 °F

Nearby Weather Stations